createdAt,value
2018-12-21T00:00:05.227Z,21.77
2018-12-21T00:02:33.468Z,25.80
2018-12-21T00:05:01.732Z,22.20
2018-12-21T00:07:29.937Z,23.70
2018-12-21T00:09:58.149Z,21.30
2018-12-21T00:12:26.497Z,20.43
2018-12-21T00:14:54.723Z,20.07
2018-12-21T00:17:23.061Z,27.90
2018-12-21T00:19:51.266Z,18.33
2018-12-21T00:22:19.629Z,25.87
2018-12-21T00:24:48.055Z,23.70
2018-12-21T00:27:16.309Z,15.80
2018-12-21T00:29:44.540Z,16.50
2018-12-21T00:32:18.270Z,21.17
2018-12-21T00:34:51.985Z,21.23
2018-12-21T00:37:25.677Z,15.47
2018-12-21T00:39:59.483Z,11.97
2018-12-21T00:43:06.793Z,17.93
2018-12-21T00:45:39.663Z,11.80
2018-12-21T00:48:07.937Z,13.00
2018-12-21T00:50:36.173Z,10.33
2018-12-21T00:53:04.416Z,13.03
2018-12-21T00:55:32.625Z,11.20
2018-12-21T00:58:00.817Z,11.73
2018-12-21T01:00:29.218Z,10.50
2018-12-21T01:02:57.454Z,7.80
2018-12-21T01:05:25.720Z,13.20
2018-12-21T01:07:54.043Z,13.23
2018-12-21T01:10:22.373Z,15.53
2018-12-21T01:12:50.580Z,13.20
2018-12-21T01:15:18.895Z,23.27
2018-12-21T01:17:47.187Z,8.40
2018-12-21T01:20:15.576Z,9.83
2018-12-21T01:22:43.806Z,15.53
2018-12-21T01:25:12.017Z,19.47
2018-12-21T01:27:40.321Z,8.40
2018-12-21T01:30:08.702Z,9.87
2018-12-21T01:32:36.917Z,12.23
2018-12-21T01:35:05.236Z,11.33
2018-12-21T01:37:33.466Z,11.33
2018-12-21T01:40:01.786Z,15.40
2018-12-21T01:42:29.989Z,12.17
2018-12-21T01:44:58.230Z,25.67
2018-12-21T01:47:26.477Z,18.97
2018-12-21T01:49:54.749Z,15.60
2018-12-21T01:52:23.006Z,18.80
2018-12-21T01:54:51.233Z,18.57
2018-12-21T01:57:19.489Z,13.13
2018-12-21T01:59:47.712Z,21.20
2018-12-21T02:02:15.944Z,17.10
2018-12-21T02:04:44.169Z,23.93
2018-12-21T02:07:12.413Z,18.57
2018-12-21T02:09:40.690Z,17.03
2018-12-21T02:12:09.013Z,13.27
2018-12-21T02:14:37.975Z,18.87
2018-12-21T02:17:06.281Z,15.63
2018-12-21T02:19:34.525Z,18.03
2018-12-21T02:22:02.821Z,22.47
2018-12-21T02:24:31.067Z,15.60
2018-12-21T02:26:59.250Z,18.70
2018-12-21T02:29:28.009Z,12.10
2018-12-21T02:31:56.246Z,11.63
2018-12-21T02:34:24.498Z,11.17
2018-12-21T02:36:52.815Z,18.40
2018-12-21T02:39:21.233Z,12.43
2018-12-21T02:41:49.448Z,9.17
2018-12-21T02:44:17.708Z,7.30
2018-12-21T02:46:45.962Z,9.63
2018-12-21T02:49:14.197Z,8.57
2018-12-21T02:51:42.526Z,9.97
2018-12-21T02:54:10.832Z,11.27
2018-12-21T02:56:39.068Z,7.63
2018-12-21T02:59:07.390Z,4.60
2018-12-21T03:01:35.706Z,4.37
2018-12-21T03:04:04.073Z,6.57
2018-12-21T03:06:32.323Z,6.17
2018-12-21T03:09:00.552Z,6.83
2018-12-21T03:11:28.872Z,3.67
2018-12-21T03:13:57.090Z,6.63
2018-12-21T03:16:25.316Z,5.83
2018-12-21T03:18:53.539Z,4.70
2018-12-21T03:21:21.742Z,4.57
2018-12-21T03:23:49.971Z,6.57
2018-12-21T03:26:18.177Z,3.77
2018-12-21T03:28:46.438Z,5.23
2018-12-21T03:31:14.678Z,4.57
2018-12-21T03:33:42.856Z,6.20
2018-12-21T03:36:11.227Z,7.70
2018-12-21T03:38:39.443Z,4.40
2018-12-21T03:41:07.793Z,5.77
2018-12-21T03:43:36.003Z,7.43
2018-12-21T03:46:04.190Z,7.93
2018-12-21T03:48:32.410Z,6.47
2018-12-21T03:51:00.677Z,9.90
2018-12-21T03:53:28.931Z,12.30
2018-12-21T03:55:57.548Z,10.93
2018-12-21T03:58:25.798Z,8.83
2018-12-21T04:00:54.041Z,6.13
2018-12-21T04:03:22.274Z,9.33
2018-12-21T04:05:50.517Z,6.77
2018-12-21T04:08:18.741Z,5.57
2018-12-21T04:10:46.975Z,10.53
2018-12-21T04:13:15.198Z,11.97
2018-12-21T04:15:43.402Z,8.07
2018-12-21T04:18:11.618Z,12.73
2018-12-21T04:20:39.845Z,12.83
2018-12-21T04:23:08.071Z,9.17
2018-12-21T04:25:36.310Z,12.60
2018-12-21T04:28:04.565Z,12.37
2018-12-21T04:30:32.770Z,14.37
2018-12-21T04:33:01.100Z,13.37
2018-12-21T04:35:29.354Z,12.37
2018-12-21T04:37:57.546Z,11.73
2018-12-21T04:40:25.890Z,14.70
2018-12-21T04:42:54.123Z,11.43
2018-12-21T04:45:22.334Z,12.33
2018-12-21T04:47:50.538Z,16.67
2018-12-21T04:50:18.766Z,16.93
2018-12-21T04:52:47.004Z,13.73
2018-12-21T04:55:15.232Z,22.97
2018-12-21T04:57:43.501Z,24.20
2018-12-21T05:00:11.867Z,22.03
2018-12-21T05:02:40.157Z,13.77
2018-12-21T05:05:08.393Z,14.47
2018-12-21T05:07:36.872Z,15.57
2018-12-21T05:10:05.475Z,16.47
2018-12-21T05:12:33.687Z,12.83
2018-12-21T05:15:02.078Z,22.13
2018-12-21T05:17:30.472Z,21.27
2018-12-21T05:19:58.717Z,18.33
2018-12-21T05:22:27.021Z,17.93
2018-12-21T05:24:55.317Z,14.00
2018-12-21T05:27:23.529Z,19.03
2018-12-21T05:29:51.745Z,18.00
2018-12-21T05:32:20.009Z,16.23
2018-12-21T05:34:49.874Z,18.80
2018-12-21T05:37:18.317Z,17.37
2018-12-21T05:39:46.552Z,12.70
2018-12-21T05:42:14.854Z,13.47
2018-12-21T05:44:43.069Z,13.83
2018-12-21T05:47:11.284Z,17.23
2018-12-21T05:49:39.522Z,17.73
2018-12-21T05:52:07.728Z,15.80
2018-12-21T05:54:35.933Z,14.10
2018-12-21T05:57:04.265Z,14.10
2018-12-21T05:59:32.480Z,21.07
2018-12-21T06:02:00.785Z,16.20
2018-12-21T06:04:29.041Z,13.97
2018-12-21T06:06:57.233Z,12.47
2018-12-21T06:09:25.502Z,9.97
2018-12-21T06:11:54.368Z,14.50
2018-12-21T06:14:22.554Z,13.47
2018-12-21T06:16:50.904Z,8.20
2018-12-21T06:19:19.103Z,10.90
2018-12-21T06:21:47.356Z,13.43
2018-12-21T06:24:15.574Z,8.13
2018-12-21T06:26:43.802Z,10.20
2018-12-21T06:29:12.020Z,12.80
2018-12-21T06:31:40.972Z,10.50
2018-12-21T06:34:09.161Z,11.97
2018-12-21T06:36:37.423Z,11.03
2018-12-21T06:39:07.678Z,9.70
2018-12-21T06:41:36.091Z,12.10
2018-12-21T06:44:04.491Z,7.63
2018-12-21T06:46:32.808Z,5.83
2018-12-21T06:49:01.069Z,8.00
2018-12-21T06:51:29.357Z,14.07
2018-12-21T06:53:57.617Z,12.30
2018-12-21T06:56:25.875Z,9.67
2018-12-21T06:58:54.208Z,10.83
2018-12-21T07:01:22.464Z,8.33
2018-12-21T07:03:50.675Z,10.20
2018-12-21T07:06:18.856Z,8.67
2018-12-21T07:08:47.105Z,11.23
2018-12-21T07:11:15.306Z,7.13
2018-12-21T07:13:43.619Z,7.47
2018-12-21T07:16:11.800Z,8.97
2018-12-21T07:18:40.014Z,17.20
2018-12-21T07:21:08.275Z,7.10
2018-12-21T07:23:36.493Z,10.17
2018-12-21T07:26:05.016Z,10.13
2018-12-21T07:28:33.282Z,10.83
2018-12-21T07:31:01.514Z,8.40
2018-12-21T07:33:29.745Z,5.27
2018-12-21T07:35:57.994Z,3.60
2018-12-21T07:38:27.249Z,4.20
2018-12-21T07:40:56.710Z,11.00
2018-12-21T07:43:25.396Z,10.40
2018-12-21T07:45:54.448Z,7.47
2018-12-21T07:48:23.003Z,13.27
2018-12-21T07:50:52.015Z,5.83
2018-12-21T07:53:20.281Z,6.27
2018-12-21T07:55:48.503Z,6.87
2018-12-21T07:58:16.721Z,4.90
2018-12-21T08:00:44.934Z,5.10
2018-12-21T08:03:13.257Z,4.40
2018-12-21T08:05:41.485Z,8.73
2018-12-21T08:08:09.657Z,6.70
2018-12-21T08:10:37.897Z,8.53
2018-12-21T08:13:06.150Z,10.03
2018-12-21T08:15:34.427Z,11.07
2018-12-21T08:18:02.624Z,5.23
2018-12-21T08:20:30.984Z,5.27
2018-12-21T08:22:59.211Z,4.23
2018-12-21T08:25:27.429Z,7.53
2018-12-21T08:27:55.664Z,8.27
2018-12-21T08:30:23.876Z,8.87
2018-12-21T08:32:52.081Z,5.67
2018-12-21T08:35:20.293Z,11.07
2018-12-21T08:37:48.560Z,10.50
2018-12-21T08:40:16.781Z,4.33
2018-12-21T08:42:44.980Z,5.57
2018-12-21T08:45:13.205Z,16.67
2018-12-21T08:47:41.419Z,8.57
2018-12-21T08:50:10.741Z,8.93
2018-12-21T08:52:39.088Z,6.67
2018-12-21T08:55:07.546Z,4.13
2018-12-21T08:57:35.745Z,9.90
2018-12-21T09:00:05.725Z,5.57
2018-12-21T09:02:33.965Z,3.73
2018-12-21T09:05:02.206Z,3.60
2018-12-21T09:07:30.383Z,4.37
2018-12-21T09:09:58.647Z,4.50
2018-12-21T09:12:26.897Z,2.70
2018-12-21T09:14:55.140Z,3.53
2018-12-21T09:17:23.352Z,5.37
2018-12-21T09:19:51.560Z,4.07
2018-12-21T09:22:19.877Z,4.37
2018-12-21T09:24:48.180Z,9.27
2018-12-21T09:27:16.405Z,2.80
2018-12-21T09:29:44.730Z,12.83
2018-12-21T09:32:12.962Z,8.10
2018-12-21T09:34:41.148Z,11.77
2018-12-21T09:37:09.474Z,3.23
2018-12-21T09:39:37.730Z,5.80
2018-12-21T09:42:06.058Z,6.23
2018-12-21T09:44:34.285Z,9.37
2018-12-21T09:47:02.510Z,2.90
2018-12-21T09:49:30.736Z,4.30
2018-12-21T09:51:59.061Z,4.00
2018-12-21T09:54:27.286Z,4.93
2018-12-21T09:56:55.554Z,7.77
2018-12-21T09:59:23.754Z,2.40
2018-12-21T10:01:52.033Z,8.57
2018-12-21T10:04:20.293Z,5.90
2018-12-21T10:06:48.569Z,6.93
2018-12-21T10:09:17.025Z,2.90
2018-12-21T10:11:45.277Z,5.97
2018-12-21T10:14:13.506Z,5.53
2018-12-21T10:16:41.717Z,5.80
2018-12-21T10:19:09.968Z,5.93
2018-12-21T10:21:38.207Z,5.87
2018-12-21T10:24:06.552Z,10.57
2018-12-21T10:26:34.858Z,3.37
2018-12-21T10:29:03.070Z,4.63
2018-12-21T10:31:32.045Z,9.63
2018-12-21T10:34:00.384Z,2.70
2018-12-21T10:36:28.650Z,5.93
2018-12-21T10:38:57.257Z,4.97
2018-12-21T10:41:25.476Z,3.50
2018-12-21T10:43:53.765Z,4.77
2018-12-21T10:46:21.998Z,3.50
2018-12-21T10:48:50.197Z,2.80
2018-12-21T10:51:18.478Z,7.27
2018-12-21T10:53:46.885Z,3.17
2018-12-21T10:56:15.135Z,2.67
2018-12-21T10:58:43.406Z,2.27
2018-12-21T11:01:11.661Z,6.13
2018-12-21T11:03:39.921Z,3.47
2018-12-21T11:06:08.162Z,5.67
2018-12-21T11:08:36.485Z,3.23
2018-12-21T11:11:04.793Z,3.93
2018-12-21T11:13:33.042Z,5.90
2018-12-21T11:16:01.257Z,2.87
2018-12-21T11:18:29.521Z,2.93
2018-12-21T11:20:57.972Z,4.63
2018-12-21T11:23:26.212Z,3.27
2018-12-21T11:25:54.490Z,3.27
2018-12-21T11:28:25.581Z,2.40
2018-12-21T11:30:53.015Z,5.43
2018-12-21T11:33:21.265Z,4.90
2018-12-21T11:35:49.505Z,4.00
2018-12-21T11:38:17.747Z,1.80
2018-12-21T11:40:45.990Z,6.00
2018-12-21T11:43:14.197Z,4.03
2018-12-21T11:45:42.441Z,4.40
2018-12-21T11:48:10.680Z,4.00
2018-12-21T11:50:38.954Z,5.00
2018-12-21T11:53:07.171Z,2.83
2018-12-21T11:55:35.446Z,2.70
2018-12-21T11:58:03.756Z,2.83
2018-12-21T12:00:32.000Z,2.57
2018-12-21T12:03:00.239Z,3.77
2018-12-21T12:05:28.482Z,4.67
2018-12-21T12:07:56.732Z,3.27
2018-12-21T12:10:24.974Z,5.67
2018-12-21T12:12:53.236Z,3.03
2018-12-21T12:15:21.556Z,2.90
2018-12-21T12:17:49.805Z,2.93
2018-12-21T12:20:18.061Z,5.57
2018-12-21T12:22:46.349Z,2.83
2018-12-21T12:25:14.570Z,3.17
2018-12-21T12:27:42.905Z,3.53
2018-12-21T12:30:11.482Z,4.93
2018-12-21T12:32:39.725Z,3.70
2018-12-21T12:35:08.445Z,6.83
2018-12-21T12:37:36.701Z,3.60
2018-12-21T12:40:05.941Z,3.33
2018-12-21T12:42:34.553Z,3.20
2018-12-21T12:45:02.849Z,3.50
2018-12-21T12:47:31.109Z,4.97
2018-12-21T12:49:59.381Z,8.83
2018-12-21T12:52:27.652Z,6.03
2018-12-21T12:55:02.570Z,4.50
2018-12-21T12:57:26.191Z,7.10
2018-12-21T12:59:54.421Z,3.23
2018-12-21T13:02:22.669Z,5.13
2018-12-21T13:04:50.990Z,5.73
2018-12-21T13:07:19.267Z,3.67
2018-12-21T13:09:47.505Z,4.07
2018-12-21T13:12:15.745Z,4.03
2018-12-21T13:14:43.984Z,3.87
2018-12-21T13:17:12.362Z,3.80
2018-12-21T13:19:40.640Z,3.57
2018-12-21T13:22:08.917Z,4.83
2018-12-21T13:24:37.158Z,5.10
2018-12-21T13:27:05.403Z,7.97
2018-12-21T13:29:33.613Z,4.70
2018-12-21T13:32:01.913Z,4.37
2018-12-21T13:34:30.132Z,5.17
2018-12-21T13:36:58.371Z,4.20
2018-12-21T13:39:26.646Z,4.67
2018-12-21T13:41:54.920Z,5.80
2018-12-21T13:44:23.362Z,4.17
2018-12-21T13:46:51.592Z,5.13
2018-12-21T13:49:20.131Z,4.60
2018-12-21T13:51:48.513Z,5.57
2018-12-21T13:54:17.269Z,6.37
2018-12-21T13:56:45.542Z,5.50
2018-12-21T13:59:14.469Z,6.63
2018-12-21T14:01:42.774Z,5.07
2018-12-21T14:04:11.027Z,6.10
2018-12-21T14:06:39.289Z,4.83
2018-12-21T14:09:07.969Z,4.87
2018-12-21T14:11:36.249Z,5.77
2018-12-21T14:14:04.567Z,5.13
2018-12-21T14:16:32.782Z,5.87
2018-12-21T14:19:01.019Z,5.13
2018-12-21T14:21:29.258Z,6.37
2018-12-21T14:23:57.501Z,5.93
2018-12-21T14:26:25.713Z,4.30
2018-12-21T14:28:53.961Z,4.37
2018-12-21T14:31:22.197Z,5.50
2018-12-21T14:33:50.508Z,6.00
2018-12-21T14:36:20.789Z,8.53
2018-12-21T14:38:49.037Z,5.00
2018-12-21T14:41:17.322Z,4.07
2018-12-21T14:43:45.589Z,5.67
2018-12-21T14:46:13.838Z,5.63
2018-12-21T14:48:42.074Z,5.73
2018-12-21T14:51:10.391Z,5.57
2018-12-21T14:53:38.593Z,4.87
2018-12-21T14:56:06.991Z,6.63
2018-12-21T14:58:35.179Z,6.17
2018-12-21T15:01:03.535Z,10.07
2018-12-21T15:03:31.765Z,7.87
2018-12-21T15:06:00.034Z,6.80
2018-12-21T15:08:28.278Z,4.90
2018-12-21T15:10:56.625Z,8.03
2018-12-21T15:13:24.876Z,7.27
2018-12-21T15:15:53.120Z,8.33
2018-12-21T15:18:21.457Z,8.43
2018-12-21T15:20:49.670Z,9.27
2018-12-21T15:23:17.849Z,9.33
2018-12-21T15:25:46.437Z,8.70
2018-12-21T15:28:14.827Z,10.53
2018-12-21T15:30:43.121Z,8.37
2018-12-21T15:33:11.436Z,10.87
2018-12-21T15:35:39.912Z,6.83
2018-12-21T15:38:08.255Z,7.63
2018-12-21T15:40:36.505Z,6.43
2018-12-21T15:43:04.825Z,6.97
2018-12-21T15:45:33.081Z,6.37
2018-12-21T15:48:01.292Z,4.73
2018-12-21T15:50:29.653Z,5.27
2018-12-21T15:52:57.996Z,7.57
2018-12-21T15:55:26.328Z,4.90
2018-12-21T15:57:54.630Z,4.93
2018-12-21T16:00:22.994Z,7.40
2018-12-21T16:02:53.665Z,2.57
2018-12-21T16:05:22.058Z,2.47
2018-12-21T16:07:50.361Z,9.53
2018-12-21T16:10:18.665Z,2.70
2018-12-21T16:12:47.068Z,2.97
2018-12-21T16:15:15.362Z,4.27
2018-12-21T16:17:43.795Z,4.20
2018-12-21T16:20:14.122Z,2.10
2018-12-21T16:22:42.807Z,1.67
2018-12-21T16:25:11.379Z,1.97
2018-12-21T16:27:40.021Z,7.37
2018-12-21T16:30:11.081Z,2.43
2018-12-21T16:32:39.659Z,3.97
2018-12-21T16:35:07.880Z,2.83
2018-12-21T16:37:36.126Z,2.07
2018-12-21T16:40:04.951Z,6.03
2018-12-21T16:42:33.587Z,3.27
2018-12-21T16:45:01.814Z,3.23
2018-12-21T16:47:30.081Z,1.90
2018-12-21T16:49:58.325Z,2.83
2018-12-21T16:52:26.735Z,1.80
2018-12-21T16:54:55.010Z,3.63
2018-12-21T16:57:23.242Z,4.80
2018-12-21T16:59:51.457Z,2.63
2018-12-21T17:02:19.730Z,2.97
2018-12-21T17:04:47.948Z,3.77
2018-12-21T17:07:16.190Z,2.63
2018-12-21T17:09:44.421Z,3.17
2018-12-21T17:12:12.622Z,3.50
2018-12-21T17:14:40.883Z,4.17
2018-12-21T17:17:09.254Z,6.57
2018-12-21T17:19:37.488Z,2.40
2018-12-21T17:22:05.740Z,4.00
2018-12-21T17:24:34.014Z,1.83
2018-12-21T17:27:02.277Z,2.90
2018-12-21T17:29:30.506Z,1.97
2018-12-21T17:31:58.765Z,3.63
2018-12-21T17:34:27.060Z,2.30
2018-12-21T17:36:55.326Z,2.10
2018-12-21T17:39:23.706Z,3.53
2018-12-21T17:41:51.957Z,3.23
2018-12-21T17:44:20.232Z,4.33
2018-12-21T17:46:48.509Z,5.93
2018-12-21T17:49:16.803Z,6.57
2018-12-21T17:51:45.032Z,6.97
2018-12-21T17:54:13.245Z,2.57
2018-12-21T17:56:41.532Z,4.33
2018-12-21T17:59:09.766Z,3.77
2018-12-21T18:01:39.112Z,7.60
2018-12-21T18:04:19.721Z,4.67
2018-12-21T18:06:48.055Z,4.83
2018-12-21T18:09:16.313Z,4.77
2018-12-21T18:11:44.587Z,3.00
2018-12-21T18:14:13.139Z,8.17
2018-12-21T18:16:41.395Z,6.57
2018-12-21T18:19:09.725Z,3.13
2018-12-21T18:21:47.676Z,6.30
2018-12-21T18:24:16.109Z,4.47
2018-12-21T18:26:44.787Z,6.40
2018-12-21T18:29:13.105Z,4.20
2018-12-21T18:31:49.655Z,5.90
2018-12-21T18:34:23.413Z,7.47
2018-12-21T18:36:51.757Z,9.13
2018-12-21T18:39:20.052Z,6.70
2018-12-21T18:41:48.273Z,4.13
2018-12-21T18:44:16.621Z,6.67
2018-12-21T18:46:44.918Z,9.50
2018-12-21T18:49:13.212Z,7.90
2018-12-21T18:51:41.523Z,10.40
2018-12-21T18:54:09.965Z,7.40
2018-12-21T18:56:50.470Z,5.87
2018-12-21T18:59:18.847Z,6.80
2018-12-21T19:01:47.193Z,4.47
2018-12-21T19:04:15.498Z,6.77
2018-12-21T19:06:43.730Z,4.23
2018-12-21T19:09:12.059Z,11.07
2018-12-21T19:11:40.280Z,5.80
2018-12-21T19:14:08.598Z,7.17
2018-12-21T19:16:36.890Z,5.60
2018-12-21T19:19:05.200Z,10.37
2018-12-21T19:21:33.459Z,3.77
2018-12-21T19:24:01.873Z,8.33
2018-12-21T19:26:30.157Z,12.50
2018-12-21T19:28:58.403Z,12.60
2018-12-21T19:31:26.599Z,10.97
2018-12-21T19:33:54.867Z,3.63
2018-12-21T19:36:23.122Z,7.20
2018-12-21T19:38:51.387Z,6.23
2018-12-21T19:41:19.714Z,2.10
2018-12-21T19:43:47.929Z,7.33
2018-12-21T19:46:16.150Z,5.67
2018-12-21T19:48:44.390Z,5.30
2018-12-21T19:51:12.690Z,1.40
2018-12-21T19:53:41.021Z,1.67
2018-12-21T19:56:27.926Z,2.63
2018-12-21T19:58:56.206Z,7.03
2018-12-21T20:01:24.469Z,4.33
2018-12-21T20:03:52.711Z,2.83
2018-12-21T20:06:21.082Z,5.07
2018-12-21T20:08:49.334Z,3.80
2018-12-21T20:11:17.562Z,2.83
2018-12-21T20:13:45.829Z,3.07
2018-12-21T20:16:14.018Z,5.20
2018-12-21T20:18:42.407Z,3.70
2018-12-21T20:21:11.649Z,1.77
2018-12-21T20:23:39.862Z,1.70
2018-12-21T20:26:08.129Z,4.13
2018-12-21T20:28:36.310Z,3.27
2018-12-21T20:31:04.660Z,1.70
2018-12-21T20:33:32.869Z,2.67
2018-12-21T20:36:01.178Z,2.30
2018-12-21T20:38:29.467Z,3.43
2018-12-21T20:40:59.634Z,1.53
2018-12-21T20:43:27.881Z,4.70
2018-12-21T20:45:56.156Z,2.73
2018-12-21T20:48:24.336Z,1.63
2018-12-21T20:50:52.629Z,2.90
2018-12-21T20:53:20.817Z,1.50
2018-12-21T20:55:49.105Z,2.40
2018-12-21T20:58:30.392Z,2.23
2018-12-21T21:00:58.650Z,2.67
2018-12-21T21:03:26.879Z,1.43
2018-12-21T21:05:55.094Z,4.50
2018-12-21T21:08:23.342Z,1.97
2018-12-21T21:10:51.593Z,1.10
2018-12-21T21:13:19.850Z,1.30
2018-12-21T21:15:48.104Z,1.03
2018-12-21T21:18:16.293Z,1.30
2018-12-21T21:20:44.488Z,1.50
2018-12-21T21:23:12.698Z,2.57
2018-12-21T21:25:41.002Z,3.53
2018-12-21T21:28:09.234Z,3.40
2018-12-21T21:30:38.701Z,5.10
2018-12-21T21:33:06.981Z,1.60
2018-12-21T21:35:35.208Z,3.03
2018-12-21T21:38:03.410Z,2.10
2018-12-21T21:40:32.338Z,4.53
2018-12-21T21:43:00.524Z,2.70
2018-12-21T21:45:28.954Z,2.80
2018-12-21T21:47:57.138Z,2.50
2018-12-21T21:50:25.382Z,1.50
2018-12-21T21:52:53.602Z,4.27
2018-12-21T21:55:21.852Z,1.97
2018-12-21T21:57:50.581Z,5.17
2018-12-21T22:00:18.765Z,3.47
2018-12-21T22:02:46.993Z,2.33
2018-12-21T22:05:15.207Z,1.20
2018-12-21T22:07:43.417Z,7.20
2018-12-21T22:10:11.824Z,1.53
2018-12-21T22:12:40.227Z,1.33
2018-12-21T22:15:09.959Z,2.37
2018-12-21T22:17:38.265Z,1.30
2018-12-21T22:20:09.264Z,1.60
2018-12-21T22:22:37.548Z,2.23
2018-12-21T22:25:05.754Z,5.33
2018-12-21T22:27:33.966Z,1.20
2018-12-21T22:30:02.350Z,1.87
2018-12-21T22:32:30.637Z,2.30
2018-12-21T22:34:58.973Z,3.17
2018-12-21T22:37:27.244Z,4.87
2018-12-21T22:39:55.468Z,1.73
2018-12-21T22:42:23.676Z,1.27
2018-12-21T22:44:51.930Z,2.27
2018-12-21T22:47:20.263Z,6.43
2018-12-21T22:49:48.525Z,1.60
2018-12-21T22:52:17.621Z,1.30
2018-12-21T22:54:45.856Z,1.40
2018-12-21T22:57:14.057Z,1.83
2018-12-21T22:59:42.277Z,2.80
2018-12-21T23:02:10.549Z,1.63
2018-12-21T23:04:38.769Z,2.03
2018-12-21T23:07:07.002Z,1.33
2018-12-21T23:09:35.235Z,1.40
2018-12-21T23:12:03.513Z,0.90
2018-12-21T23:14:31.727Z,1.33
2018-12-21T23:17:00.042Z,3.23
2018-12-21T23:19:28.281Z,1.00
2018-12-21T23:21:56.492Z,3.30
2018-12-21T23:24:24.702Z,1.60
2018-12-21T23:26:52.898Z,2.63
2018-12-21T23:29:21.111Z,0.80
2018-12-21T23:31:49.349Z,2.47
2018-12-21T23:34:17.578Z,2.53
2018-12-21T23:36:45.880Z,0.77
2018-12-21T23:39:14.132Z,0.93
2018-12-21T23:41:42.445Z,0.70
2018-12-21T23:44:10.671Z,0.90
2018-12-21T23:46:38.961Z,2.87
2018-12-21T23:49:07.188Z,3.30
2018-12-21T23:51:36.149Z,4.30
2018-12-21T23:54:04.362Z,1.20
2018-12-21T23:56:32.606Z,2.57
2018-12-21T23:59:00.815Z,1.23
